Terminal Aerodrome Forecast
Issued by NWS

Home | Current Version | Previous Version | Text Only | Print | Product List | Glossary On
Versions: 1 2 3 4 5 6 7 8 9 10 11 12 13 14 15 16 17 18 19 20
134
FTUS41 KPHI 290529
TAFMIV
TAF
KMIV 290529Z 2906/3006 04004KT 4SM -SHRA BR SCT030 OVC080
      TEMPO 2906/2907 2SM RA BR OVC010
     FM290700 04008KT 3SM +RA BR OVC005
     FM291400 02010KT 5SM SHRA BR OVC010
     FM291600 02010G18KT P6SM -SHRA OVC018
     FM291900 02010G18KT P6SM BKN035
     FM292200 VRB03KT P6SM SCT045=

USA.gov is the U.S. government's official web portal to all federal, state and local government web resources and services.